LAN010 SCIE-SCEL
Flight info
| Callsign | LAN010 |
|---|---|
| Flight time | 0h 47m |
| Altitude | 30000 |
| Route | LODOS4N LODOS UQ808 EROLO EROLO8A |
| Aircraft | A321/M-SDE3FGHIRWY/LB1 |
Departure
| Time | 2026-04-24 03:12 |
|---|---|
| Airport | Carriel Sur International Airport (SCIE) |
Arrival
| Time | 2026-04-24 03:59 |
|---|---|
| Airport | Comodoro Arturo Merino Benítez International Airport (SCEL) |
| Time | Latitude | Longitude | Altitude | Speed | Heading |
|---|---|---|---|---|---|
| 2026-04-24 02:43 | -36.77598 | -73.05986 | 52 ft | 0 kts | 179° |
| 2026-04-24 03:02 | -36.77588 | -73.05986 | 60 ft | 3 kts | 179° |
| 2026-04-24 03:02 | -36.77569 | -73.05986 | 53 ft | 3 kts | 197° |
| 2026-04-24 03:03 | -36.77551 | -73.05975 | 58 ft | 3 kts | 229° |
| 2026-04-24 03:03 | -36.77541 | -73.05954 | 56 ft | 3 kts | 260° |
| 2026-04-24 03:03 | -36.77539 | -73.05941 | 53 ft | 0 kts | 269° |
| 2026-04-24 03:05 | -36.77539 | -73.05945 | 52 ft | 1 kts | 269° |
| 2026-04-24 03:05 | -36.77539 | -73.05969 | 46 ft | 4 kts | 271° |
| 2026-04-24 03:05 | -36.77536 | -73.06018 | 60 ft | 8 kts | 276° |
| 2026-04-24 03:06 | -36.77525 | -73.06097 | 54 ft | 11 kts | 283° |
| 2026-04-24 03:06 | -36.77509 | -73.06180 | 58 ft | 8 kts | 270° |
| 2026-04-24 03:06 | -36.77536 | -73.06223 | 57 ft | 5 kts | 218° |
| 2026-04-24 03:06 | -36.77569 | -73.06254 | 61 ft | 7 kts | 213° |
| 2026-04-24 03:07 | -36.77624 | -73.06283 | 57 ft | 10 kts | 202° |
| 2026-04-24 03:08 | -36.78021 | -73.06515 | 55 ft | 16 kts | 204° |
| 2026-04-24 03:08 | -36.78223 | -73.06639 | 61 ft | 10 kts | 213° |
| 2026-04-24 03:08 | -36.78242 | -73.06710 | 56 ft | 4 kts | 288° |
| 2026-04-24 03:09 | -36.78237 | -73.06729 | 62 ft | 2 kts | 288° |
| 2026-04-24 03:09 | -36.78235 | -73.06738 | 62 ft | 1 kts | 288° |
| 2026-04-24 03:09 | -36.78233 | -73.06746 | 63 ft | 2 kts | 290° |
| 2026-04-24 03:09 | -36.78219 | -73.06787 | 62 ft | 5 kts | 293° |
| 2026-04-24 03:10 | -36.78211 | -73.06811 | 65 ft | 5 kts | 293° |
| 2026-04-24 03:10 | -36.78190 | -73.06857 | 68 ft | 5 kts | 324° |
| 2026-04-24 03:10 | -36.78170 | -73.06849 | 68 ft | 0 kts | 24° |
| 2026-04-24 03:11 | -36.78161 | -73.06844 | 68 ft | 9 kts | 24° |
| 2026-04-24 03:11 | -36.77933 | -73.06711 | 57 ft | 72 kts | 25° |
| 2026-04-24 03:11 | -36.77265 | -73.06322 | 63 ft | 138 kts | 25° |
| 2026-04-24 03:12 | -36.76272 | -73.05720 | 327 ft | 166 kts | 26° |
| 2026-04-24 03:12 | -36.75209 | -73.05105 | 925 ft | 175 kts | 25° |
| 2026-04-24 03:12 | -36.74039 | -73.04427 | 1240 ft | 196 kts | 25° |
| 2026-04-24 03:12 | -36.72751 | -73.03679 | 1490 ft | 218 kts | 26° |
| 2026-04-24 03:13 | -36.71304 | -73.02839 | 1687 ft | 241 kts | 26° |
| 2026-04-24 03:13 | -36.69754 | -73.01811 | 2017 ft | 261 kts | 38° |
| 2026-04-24 03:13 | -36.68373 | -73.00315 | 2686 ft | 265 kts | 48° |
| 2026-04-24 03:13 | -36.67134 | -72.98553 | 3458 ft | 268 kts | 53° |
| 2026-04-24 03:14 | -36.65973 | -72.96730 | 4185 ft | 271 kts | 53° |
| 2026-04-24 03:14 | -36.64792 | -72.94868 | 4906 ft | 275 kts | 53° |
| 2026-04-24 03:14 | -36.63575 | -72.93002 | 5584 ft | 279 kts | 51° |
| 2026-04-24 03:14 | -36.62315 | -72.91137 | 6258 ft | 284 kts | 49° |
| 2026-04-24 03:15 | -36.61019 | -72.89272 | 6913 ft | 288 kts | 47° |
| 2026-04-24 03:15 | -36.59677 | -72.87378 | 7575 ft | 292 kts | 47° |
| 2026-04-24 03:15 | -36.58321 | -72.85478 | 8234 ft | 295 kts | 46° |
| 2026-04-24 03:15 | -36.56948 | -72.83567 | 8895 ft | 298 kts | 46° |
| 2026-04-24 03:16 | -36.55558 | -72.81636 | 9579 ft | 301 kts | 46° |
| 2026-04-24 03:16 | -36.54156 | -72.79685 | 10235 ft | 304 kts | 46° |
| 2026-04-24 03:16 | -36.52706 | -72.77675 | 10514 ft | 322 kts | 45° |
| 2026-04-24 03:16 | -36.51162 | -72.75539 | 10635 ft | 343 kts | 46° |
| 2026-04-24 03:17 | -36.49534 | -72.73283 | 10926 ft | 356 kts | 45° |
| 2026-04-24 03:17 | -36.47816 | -72.71029 | 11436 ft | 360 kts | 43° |
| 2026-04-24 03:17 | -36.46033 | -72.68823 | 12000 ft | 363 kts | 41° |
| 2026-04-24 03:17 | -36.44233 | -72.66660 | 12584 ft | 366 kts | 41° |
| 2026-04-24 03:18 | -36.42364 | -72.64433 | 13166 ft | 369 kts | 41° |
| 2026-04-24 03:18 | -36.40503 | -72.62210 | 13741 ft | 373 kts | 41° |
| 2026-04-24 03:18 | -36.38658 | -72.59985 | 14280 ft | 376 kts | 41° |
| 2026-04-24 03:18 | -36.36758 | -72.57680 | 14805 ft | 379 kts | 41° |
| 2026-04-24 03:19 | -36.34864 | -72.55376 | 15345 ft | 382 kts | 41° |
| 2026-04-24 03:19 | -36.32964 | -72.53064 | 15854 ft | 384 kts | 41° |
| 2026-04-24 03:19 | -36.31043 | -72.50731 | 16378 ft | 387 kts | 41° |
| 2026-04-24 03:19 | -36.29131 | -72.48409 | 16884 ft | 390 kts | 41° |
| 2026-04-24 03:20 | -36.27169 | -72.46030 | 17407 ft | 393 kts | 41° |
| 2026-04-24 03:20 | -36.25209 | -72.43650 | 17903 ft | 395 kts | 41° |
| 2026-04-24 03:20 | -36.23242 | -72.41263 | 18391 ft | 398 kts | 41° |
| 2026-04-24 03:20 | -36.21253 | -72.38851 | 18833 ft | 401 kts | 41° |
| 2026-04-24 03:21 | -36.19250 | -72.36425 | 19263 ft | 404 kts | 41° |
| 2026-04-24 03:21 | -36.17238 | -72.33990 | 19686 ft | 406 kts | 41° |
| 2026-04-24 03:21 | -36.15210 | -72.31539 | 20102 ft | 408 kts | 41° |
| 2026-04-24 03:21 | -36.13170 | -72.29076 | 20506 ft | 411 kts | 41° |
| 2026-04-24 03:22 | -36.11117 | -72.26600 | 20902 ft | 414 kts | 41° |
| 2026-04-24 03:22 | -36.09048 | -72.24107 | 21306 ft | 416 kts | 41° |
| 2026-04-24 03:22 | -36.06939 | -72.21568 | 21704 ft | 419 kts | 41° |
| 2026-04-24 03:22 | -36.04791 | -72.19207 | 22089 ft | 419 kts | 33° |
| 2026-04-24 03:23 | -36.02315 | -72.17253 | 22456 ft | 417 kts | 24° |
| 2026-04-24 03:23 | -35.99681 | -72.15734 | 22838 ft | 418 kts | 20° |
| 2026-04-24 03:23 | -35.97033 | -72.14246 | 23226 ft | 420 kts | 20° |
| 2026-04-24 03:23 | -35.94363 | -72.12739 | 23604 ft | 423 kts | 20° |
| 2026-04-24 03:24 | -35.91647 | -72.11202 | 23949 ft | 425 kts | 21° |
| 2026-04-24 03:24 | -35.88958 | -72.09676 | 24254 ft | 428 kts | 21° |
| 2026-04-24 03:24 | -35.86171 | -72.08092 | 24582 ft | 430 kts | 21° |
| 2026-04-24 03:24 | -35.83441 | -72.06545 | 24903 ft | 432 kts | 20° |
| 2026-04-24 03:25 | -35.80699 | -72.04999 | 25218 ft | 434 kts | 20° |
| 2026-04-24 03:25 | -35.77948 | -72.03451 | 25524 ft | 436 kts | 20° |
| 2026-04-24 03:25 | -35.75211 | -72.01910 | 25836 ft | 438 kts | 20° |
| 2026-04-24 03:25 | -35.72397 | -72.00325 | 26145 ft | 440 kts | 20° |
| 2026-04-24 03:26 | -35.69634 | -71.98769 | 26453 ft | 442 kts | 20° |
| 2026-04-24 03:26 | -35.66830 | -71.97190 | 26758 ft | 444 kts | 20° |
| 2026-04-24 03:26 | -35.63976 | -71.95586 | 27060 ft | 446 kts | 20° |
| 2026-04-24 03:26 | -35.61146 | -71.93997 | 27345 ft | 449 kts | 20° |
| 2026-04-24 03:27 | -35.58302 | -71.92401 | 27655 ft | 450 kts | 20° |
| 2026-04-24 03:27 | -35.55447 | -71.90801 | 27952 ft | 452 kts | 20° |
| 2026-04-24 03:27 | -35.52610 | -71.89211 | 28235 ft | 454 kts | 20° |
| 2026-04-24 03:27 | -35.49692 | -71.87579 | 28517 ft | 456 kts | 20° |
| 2026-04-24 03:28 | -35.46796 | -71.85960 | 28793 ft | 459 kts | 20° |
| 2026-04-24 03:28 | -35.43884 | -71.84336 | 29073 ft | 460 kts | 20° |
| 2026-04-24 03:28 | -35.40998 | -71.82727 | 29346 ft | 462 kts | 20° |
| 2026-04-24 03:28 | -35.38060 | -71.81093 | 29617 ft | 464 kts | 20° |
| 2026-04-24 03:29 | -35.35076 | -71.79433 | 29875 ft | 466 kts | 20° |
| 2026-04-24 03:29 | -35.32111 | -71.77780 | 30129 ft | 468 kts | 20° |
| 2026-04-24 03:29 | -35.29110 | -71.76111 | 30229 ft | 463 kts | 20° |
| 2026-04-24 03:29 | -35.26223 | -71.74500 | 30233 ft | 451 kts | 20° |
| 2026-04-24 03:30 | -35.23382 | -71.72914 | 30236 ft | 447 kts | 20° |
| 2026-04-24 03:30 | -35.17737 | -71.69775 | 30237 ft | 445 kts | 20° |
| 2026-04-24 03:31 | -35.12091 | -71.66655 | 30230 ft | 445 kts | 20° |
| 2026-04-24 03:31 | -35.06438 | -71.63526 | 30232 ft | 445 kts | 20° |
| 2026-04-24 03:32 | -35.00676 | -71.60343 | 30220 ft | 445 kts | 20° |
| 2026-04-24 03:32 | -34.95980 | -71.57754 | 30214 ft | 445 kts | 20° |
| 2026-04-24 03:33 | -34.90299 | -71.54631 | 30203 ft | 445 kts | 20° |
| 2026-04-24 03:33 | -34.84649 | -71.51525 | 30199 ft | 445 kts | 20° |
| 2026-04-24 03:34 | -34.79002 | -71.48425 | 30202 ft | 445 kts | 20° |
| 2026-04-24 03:34 | -34.73361 | -71.45327 | 30202 ft | 445 kts | 20° |
| 2026-04-24 03:35 | -34.67703 | -71.42228 | 30202 ft | 445 kts | 20° |
| 2026-04-24 03:35 | -34.61967 | -71.39165 | 30183 ft | 446 kts | 19° |
| 2026-04-24 03:35 | -34.59089 | -71.37731 | 29993 ft | 445 kts | 18° |
| 2026-04-24 03:36 | -34.56182 | -71.36324 | 29710 ft | 443 kts | 18° |
| 2026-04-24 03:36 | -34.53318 | -71.34953 | 29421 ft | 441 kts | 18° |
| 2026-04-24 03:36 | -34.50471 | -71.33585 | 29144 ft | 439 kts | 18° |
| 2026-04-24 03:36 | -34.47642 | -71.32213 | 28868 ft | 437 kts | 18° |
| 2026-04-24 03:37 | -34.44825 | -71.30830 | 28593 ft | 435 kts | 18° |
| 2026-04-24 03:37 | -34.42028 | -71.29452 | 28318 ft | 433 kts | 18° |
| 2026-04-24 03:37 | -34.39243 | -71.28076 | 28049 ft | 431 kts | 18° |
| 2026-04-24 03:37 | -34.36467 | -71.26709 | 27784 ft | 429 kts | 18° |
| 2026-04-24 03:38 | -34.33670 | -71.25342 | 27517 ft | 427 kts | 18° |
| 2026-04-24 03:38 | -34.30920 | -71.23999 | 27265 ft | 426 kts | 18° |
| 2026-04-24 03:38 | -34.28176 | -71.22654 | 26998 ft | 424 kts | 18° |
| 2026-04-24 03:38 | -34.25467 | -71.21321 | 26579 ft | 418 kts | 18° |
| 2026-04-24 03:39 | -34.22752 | -71.19988 | 26095 ft | 414 kts | 18° |
| 2026-04-24 03:39 | -34.20098 | -71.18689 | 25626 ft | 410 kts | 17° |
| 2026-04-24 03:39 | -34.17454 | -71.17402 | 25173 ft | 405 kts | 17° |
| 2026-04-24 03:39 | -34.14855 | -71.16137 | 24725 ft | 402 kts | 17° |
| 2026-04-24 03:40 | -34.12234 | -71.14864 | 24283 ft | 398 kts | 17° |
| 2026-04-24 03:40 | -34.09639 | -71.13600 | 23847 ft | 395 kts | 17° |
| 2026-04-24 03:40 | -34.07102 | -71.12366 | 23371 ft | 391 kts | 17° |
| 2026-04-24 03:40 | -34.04595 | -71.11150 | 22960 ft | 386 kts | 17° |
| 2026-04-24 03:41 | -34.02087 | -71.09934 | 22543 ft | 381 kts | 18° |
| 2026-04-24 03:41 | -33.99643 | -71.08748 | 22113 ft | 376 kts | 18° |
| 2026-04-24 03:41 | -33.97232 | -71.07575 | 21691 ft | 371 kts | 18° |
| 2026-04-24 03:41 | -33.94796 | -71.06392 | 21254 ft | 366 kts | 18° |
| 2026-04-24 03:42 | -33.92415 | -71.05238 | 20841 ft | 362 kts | 18° |
| 2026-04-24 03:42 | -33.90085 | -71.04109 | 20418 ft | 359 kts | 18° |
| 2026-04-24 03:42 | -33.87827 | -71.03017 | 19995 ft | 356 kts | 18° |
| 2026-04-24 03:42 | -33.85511 | -71.01896 | 19563 ft | 353 kts | 19° |
| 2026-04-24 03:43 | -33.83225 | -71.00787 | 19135 ft | 351 kts | 19° |
| 2026-04-24 03:43 | -33.80941 | -70.99677 | 18694 ft | 348 kts | 19° |
| 2026-04-24 03:43 | -33.78724 | -70.98604 | 18237 ft | 346 kts | 19° |
| 2026-04-24 03:43 | -33.76486 | -70.97524 | 17790 ft | 343 kts | 19° |
| 2026-04-24 03:44 | -33.74285 | -70.96460 | 17353 ft | 339 kts | 19° |
| 2026-04-24 03:44 | -33.72841 | -70.95764 | 17070 ft | 336 kts | 19° |
| 2026-04-24 03:44 | -33.70470 | -70.94622 | 16620 ft | 332 kts | 19° |
| 2026-04-24 03:44 | -33.68330 | -70.93590 | 16201 ft | 329 kts | 19° |
| 2026-04-24 03:45 | -33.66900 | -70.92901 | 15915 ft | 327 kts | 19° |
| 2026-04-24 03:45 | -33.64803 | -70.91893 | 15499 ft | 324 kts | 19° |
| 2026-04-24 03:45 | -33.62717 | -70.90891 | 15090 ft | 322 kts | 19° |
| 2026-04-24 03:45 | -33.60608 | -70.89878 | 14678 ft | 319 kts | 19° |
| 2026-04-24 03:46 | -33.58499 | -70.88865 | 14249 ft | 317 kts | 19° |
| 2026-04-24 03:46 | -33.56476 | -70.87818 | 13833 ft | 316 kts | 26° |
| 2026-04-24 03:46 | -33.54609 | -70.86469 | 13406 ft | 315 kts | 30° |
| 2026-04-24 03:46 | -33.52746 | -70.85090 | 12995 ft | 312 kts | 29° |
| 2026-04-24 03:47 | -33.50889 | -70.83722 | 12589 ft | 309 kts | 29° |
| 2026-04-24 03:47 | -33.49018 | -70.82350 | 12179 ft | 307 kts | 29° |
| 2026-04-24 03:47 | -33.47210 | -70.81027 | 11787 ft | 304 kts | 29° |
| 2026-04-24 03:47 | -33.45417 | -70.79712 | 11398 ft | 302 kts | 30° |
| 2026-04-24 03:48 | -33.43632 | -70.78401 | 10994 ft | 300 kts | 30° |
| 2026-04-24 03:48 | -33.41836 | -70.77085 | 10454 ft | 303 kts | 30° |
| 2026-04-24 03:48 | -33.40018 | -70.75754 | 10242 ft | 294 kts | 30° |
| 2026-04-24 03:48 | -33.38287 | -70.74487 | 9947 ft | 289 kts | 30° |
| 2026-04-24 03:49 | -33.36566 | -70.73228 | 9810 ft | 286 kts | 30° |
| 2026-04-24 03:49 | -33.34803 | -70.71935 | 9556 ft | 285 kts | 30° |
| 2026-04-24 03:49 | -33.33155 | -70.70725 | 9325 ft | 271 kts | 30° |
| 2026-04-24 03:49 | -33.31498 | -70.69745 | 8916 ft | 263 kts | 17° |
| 2026-04-24 03:50 | -33.29742 | -70.69330 | 8715 ft | 258 kts | 2° |
| 2026-04-24 03:50 | -33.27954 | -70.69422 | 8391 ft | 256 kts | 353° |
| 2026-04-24 03:50 | -33.26205 | -70.69642 | 8066 ft | 255 kts | 354° |
| 2026-04-24 03:50 | -33.24418 | -70.69861 | 7731 ft | 254 kts | 354° |
| 2026-04-24 03:51 | -33.22662 | -70.70070 | 7405 ft | 254 kts | 354° |
| 2026-04-24 03:51 | -33.20898 | -70.70277 | 7029 ft | 256 kts | 355° |
| 2026-04-24 03:51 | -33.19099 | -70.70468 | 6518 ft | 263 kts | 355° |
| 2026-04-24 03:51 | -33.17289 | -70.70668 | 6381 ft | 252 kts | 354° |
| 2026-04-24 03:52 | -33.15629 | -70.70861 | 6207 ft | 245 kts | 355° |
| 2026-04-24 03:52 | -33.13915 | -70.71048 | 6024 ft | 242 kts | 355° |
| 2026-04-24 03:52 | -33.12285 | -70.71583 | 5925 ft | 241 kts | 329° |
| 2026-04-24 03:52 | -33.11112 | -70.72972 | 5560 ft | 241 kts | 297° |
| 2026-04-24 03:53 | -33.10724 | -70.74874 | 5196 ft | 240 kts | 266° |
| 2026-04-24 03:53 | -33.11243 | -70.76725 | 5002 ft | 231 kts | 236° |
| 2026-04-24 03:53 | -33.12200 | -70.78251 | 4984 ft | 228 kts | 231° |
| 2026-04-24 03:53 | -33.13203 | -70.79709 | 4991 ft | 227 kts | 229° |
| 2026-04-24 03:54 | -33.14418 | -70.80895 | 4993 ft | 226 kts | 207° |
| 2026-04-24 03:54 | -33.15889 | -70.81451 | 4994 ft | 226 kts | 185° |
| 2026-04-24 03:54 | -33.17480 | -70.81430 | 5003 ft | 221 kts | 177° |
| 2026-04-24 03:54 | -33.18943 | -70.81349 | 4993 ft | 200 kts | 177° |
| 2026-04-24 03:55 | -33.20270 | -70.81277 | 4853 ft | 188 kts | 177° |
| 2026-04-24 03:55 | -33.21558 | -70.81208 | 4626 ft | 182 kts | 177° |
| 2026-04-24 03:55 | -33.22820 | -70.81141 | 4389 ft | 177 kts | 177° |
| 2026-04-24 03:55 | -33.24039 | -70.81076 | 4168 ft | 174 kts | 177° |
| 2026-04-24 03:56 | -33.25220 | -70.81013 | 3943 ft | 170 kts | 177° |
| 2026-04-24 03:56 | -33.26409 | -70.80949 | 3723 ft | 167 kts | 176° |
| 2026-04-24 03:56 | -33.27552 | -70.80888 | 3529 ft | 162 kts | 176° |
| 2026-04-24 03:56 | -33.28652 | -70.80830 | 3304 ft | 155 kts | 176° |
| 2026-04-24 03:57 | -33.29722 | -70.80772 | 3091 ft | 153 kts | 177° |
| 2026-04-24 03:57 | -33.30779 | -70.80716 | 2880 ft | 152 kts | 177° |
| 2026-04-24 03:57 | -33.31826 | -70.80660 | 2675 ft | 151 kts | 177° |
| 2026-04-24 03:57 | -33.32879 | -70.80603 | 2459 ft | 150 kts | 177° |
| 2026-04-24 03:58 | -33.33909 | -70.80548 | 2256 ft | 150 kts | 176° |
| 2026-04-24 03:58 | -33.34962 | -70.80492 | 2052 ft | 149 kts | 177° |
| 2026-04-24 03:58 | -33.35981 | -70.80437 | 1848 ft | 148 kts | 177° |
| 2026-04-24 03:58 | -33.37011 | -70.80383 | 1649 ft | 148 kts | 177° |
| 2026-04-24 03:59 | -33.37991 | -70.80329 | 1572 ft | 122 kts | 177° |
| 2026-04-24 03:59 | -33.38676 | -70.80293 | 1574 ft | 72 kts | 178° |
| 2026-04-24 03:59 | -33.39030 | -70.80274 | 1583 ft | 39 kts | 178° |
| 2026-04-24 03:59 | -33.39223 | -70.80254 | 1582 ft | 16 kts | 162° |
| 2026-04-24 04:00 | -33.39333 | -70.80199 | 1581 ft | 18 kts | 152° |
| 2026-04-24 04:00 | -33.39442 | -70.80117 | 1575 ft | 9 kts | 149° |
| 2026-04-24 04:00 | -33.39479 | -70.80087 | 1575 ft | 11 kts | 142° |
| 2026-04-24 04:00 | -33.39529 | -70.80008 | 1575 ft | 13 kts | 110° |
| 2026-04-24 04:01 | -33.39527 | -70.79855 | 1574 ft | 15 kts | 86° |
| 2026-04-24 04:01 | -33.39523 | -70.79771 | 1575 ft | 14 kts | 90° |
| 2026-04-24 04:01 | -33.39520 | -70.79664 | 1576 ft | 12 kts | 86° |
| 2026-04-24 04:01 | -33.39527 | -70.79619 | 1576 ft | 3 kts | 158° |
| 2026-04-24 04:02 | -33.39545 | -70.79612 | 1576 ft | 3 kts | 163° |
| 2026-04-24 04:02 | -33.39565 | -70.79609 | 1576 ft | 3 kts | 174° |
| 2026-04-24 04:02 | -33.39589 | -70.79608 | 1576 ft | 4 kts | 177° |
| 2026-04-24 04:02 | -33.39600 | -70.79607 | 1576 ft | 0 kts | 177° |